Time;durP1;ratioP1;P1;durP2;ratioP2;P2;SDS_P1;SDS_P2;PMS_P1;PMS_P2;Temp;Humidity;BMP_temperature;BMP_pressure;BME280_temperature;BME280_humidity;BME280_pressure;Samples;Min_cycle;Max_cycle;Signal;HPM_P1;HPM_P2
2021/01/29 00:00:25;;;;;;;38.00;23.92;;;2.70;97.00;;;;;;4916427;29;20393;-80
2021/01/29 00:02:52;;;;;;;38.25;24.48;;;2.70;97.00;;;;;;4916549;29;20405;-79
2021/01/29 00:05:20;;;;;;;39.22;24.35;;;2.70;97.10;;;;;;4899852;29;20107;-80
2021/01/29 00:07:46;;;;;;;38.85;23.42;;;2.70;97.30;;;;;;4884168;29;20058;-80
2021/01/29 00:10:13;;;;;;;38.53;25.27;;;2.70;97.50;;;;;;4916415;29;20044;-80
2021/01/29 00:12:39;;;;;;;39.97;25.00;;;2.70;97.40;;;;;;4916452;29;20485;-80
2021/01/29 00:15:07;;;;;;;39.72;24.65;;;2.70;97.50;;;;;;4916354;29;20055;-80
2021/01/29 00:17:34;;;;;;;39.63;25.00;;;2.70;97.60;;;;;;4914891;29;20080;-74
2021/01/29 00:20:00;;;;;;;40.80;25.30;;;2.70;97.70;;;;;;4913641;29;20062;-74
2021/01/29 00:22:26;;;;;;;38.75;24.33;;;2.70;97.80;;;;;;4930851;29;20119;-74
2021/01/29 00:24:52;;;;;;;41.58;26.35;;;2.70;97.90;;;;;;4916388;29;20067;-74
2021/01/29 00:27:18;;;;;;;42.15;26.70;;;2.70;97.90;;;;;;4916263;29;20512;-74
2021/01/29 00:29:44;;;;;;;43.10;27.15;;;2.60;97.90;;;;;;4916067;29;20063;-74
2021/01/29 00:32:09;;;;;;;45.35;25.67;;;2.70;98.10;;;;;;4899344;29;20055;-74
2021/01/29 00:34:35;;;;;;;46.72;26.63;;;2.60;98.00;;;;;;4916234;29;20036;-74
2021/01/29 00:37:01;;;;;;;43.72;25.05;;;2.70;98.10;;;;;;4916323;29;20040;-74
2021/01/29 00:39:27;;;;;;;40.17;26.02;;;2.70;98.10;;;;;;4916213;29;20076;-74
2021/01/29 00:41:52;;;;;;;44.83;26.35;;;2.70;98.20;;;;;;4916182;29;20044;-74
2021/01/29 00:44:18;;;;;;;45.60;27.58;;;2.70;98.20;;;;;;4916153;29;20040;-74
2021/01/29 00:46:44;;;;;;;45.33;26.52;;;3.00;98.20;;;;;;4916026;29;20421;-74
2021/01/29 00:49:10;;;;;;;43.97;27.48;;;3.40;98.40;;;;;;4916062;29;20044;-74
2021/01/29 00:51:36;;;;;;;47.67;28.23;;;2.70;98.30;;;;;;4916280;29;20060;-74
2021/01/29 00:54:02;;;;;;;44.72;27.08;;;2.70;98.20;;;;;;4916073;29;20119;-74
2021/01/29 00:56:28;;;;;;;46.00;27.58;;;2.60;98.20;;;;;;4916023;29;20091;-74
2021/01/29 00:58:54;;;;;;;39.53;24.92;;;2.60;98.30;;;;;;4916038;29;20530;-74
2021/01/29 01:01:19;;;;;;;44.13;26.42;;;2.60;98.20;;;;;;4899139;29;20062;-80
2021/01/29 01:03:45;;;;;;;44.35;25.67;;;2.60;98.20;;;;;;4898910;29;20037;-80
2021/01/29 01:06:11;;;;;;;47.65;28.13;;;2.60;98.20;;;;;;4902445;29;20044;-80
2021/01/29 01:08:37;;;;;;;45.15;26.75;;;2.70;98.40;;;;;;4919342;29;20111;-80
2021/01/29 01:11:03;;;;;;;50.35;27.90;;;2.80;98.90;;;;;;4887196;29;20044;-80
2021/01/29 01:13:29;;;;;;;44.55;27.15;;;2.60;98.50;;;;;;4919312;29;20044;-80
2021/01/29 01:15:55;;;;;;;44.40;27.67;;;3.30;98.70;;;;;;4919357;29;20520;-80
2021/01/29 01:18:20;;;;;;;41.97;26.92;;;2.60;98.50;;;;;;4919075;29;20066;-80
2021/01/29 01:20:46;;;;;;;45.35;27.40;;;2.60;98.40;;;;;;4917663;29;20040;-80
2021/01/29 01:23:12;;;;;;;46.75;26.17;;;2.60;98.50;;;;;;4902364;29;20063;-80
2021/01/29 01:25:38;;;;;;;42.80;28.02;;;2.60;98.70;;;;;;4902303;29;20045;-80
2021/01/29 01:28:04;;;;;;;46.28;28.33;;;2.60;98.60;;;;;;4919108;29;20046;-74
2021/01/29 01:30:36;;;;;;;43.00;26.33;;;2.60;98.60;;;;;;4933627;29;20068;-74
2021/01/29 01:33:03;;;;;;;40.97;25.42;;;2.60;98.70;;;;;;4919061;29;20115;-74
2021/01/29 01:35:29;;;;;;;43.83;26.63;;;2.60;98.90;;;;;;4918857;29;20092;-74
2021/01/29 01:37:56;;;;;;;45.30;27.48;;;2.60;99.10;;;;;;4918815;29;20040;-74
2021/01/29 01:40:26;;;;;;;42.75;26.10;;;2.60;98.80;;;;;;4918708;29;20074;-74
2021/01/29 01:42:52;;;;;;;43.72;26.40;;;2.60;98.80;;;;;;4918891;29;20040;-74
2021/01/29 01:45:27;;;;;;;44.42;26.33;;;2.60;98.70;;;;;;4901938;29;20174;-74
2021/01/29 01:48:05;;;;;;;39.83;24.10;;;2.60;98.90;;;;;;4918769;29;20036;-74
2021/01/29 01:50:37;;;;;;;44.55;25.48;;;2.60;98.80;;;;;;4918633;29;20557;-74
2021/01/29 01:53:11;;;;;;;44.17;25.60;;;2.50;98.80;;;;;;4918590;29;20115;-74
2021/01/29 01:55:38;;;;;;;42.10;25.88;;;2.50;98.90;;;;;;4933119;29;20508;-74
2021/01/29 01:58:07;;;;;;;40.78;25.42;;;2.60;98.80;;;;;;4918353;29;20043;-74
2021/01/29 02:00:34;;;;;;;41.83;26.15;;;2.60;99.30;;;;;;4933184;29;20064;-80
2021/01/29 02:03:18;;;;;;;40.60;24.75;;;2.60;98.90;;;;;;4918359;29;20074;-79
2021/01/29 02:05:45;;;;;;;42.70;24.05;;;2.70;98.90;;;;;;4918479;29;20459;-80
2021/01/29 02:08:13;;;;;;;39.97;24.10;;;2.80;99.00;;;;;;4918337;29;20028;-80
2021/01/29 02:10:40;;;;;;;42.25;24.23;;;2.60;98.90;;;;;;4918315;29;20095;-80
2021/01/29 02:13:07;;;;;;;36.13;22.85;;;2.60;98.90;;;;;;4918096;29;20111;-80
2021/01/29 02:15:36;;;;;;;38.13;23.00;;;2.60;98.90;;;;;;4918064;29;20124;-80
2021/01/29 02:18:20;;;;;;;35.97;22.73;;;2.60;99.00;;;;;;4917401;29;20077;-80
2021/01/29 02:21:05;;;;;;;36.78;22.80;;;2.60;99.00;;;;;;4917988;29;20040;-80
2021/01/29 02:23:46;;;;;;;37.70;23.02;;;2.60;98.90;;;;;;4918106;29;20044;-79
2021/01/29 02:26:54;;;;;;;37.95;23.35;;;2.60;99.00;;;;;;4917098;29;20104;-80
2021/01/29 02:29:40;;;;;;;37.55;21.98;;;2.60;98.90;;;;;;4918023;29;20048;-80
2021/01/29 02:32:43;;;;;;;35.22;22.23;;;2.60;98.90;;;;;;4917951;29;20099;-80
2021/01/29 02:35:44;;;;;;;34.03;20.95;;;2.60;98.90;;;;;;4917910;29;20060;-80
2021/01/29 02:38:46;;;;;;;30.95;20.00;;;2.60;98.80;;;;;;4901042;29;20040;-80
2021/01/29 02:41:38;;;;;;;33.08;20.85;;;2.60;99.10;;;;;;4900893;29;20040;-80
2021/01/29 02:44:30;;;;;;;31.38;19.50;;;2.60;99.10;;;;;;4932245;29;20091;-80
2021/01/29 02:46:59;;;;;;;33.97;20.98;;;2.60;98.90;;;;;;4915488;29;20146;-79
2021/01/29 02:49:39;;;;;;;33.60;20.40;;;2.60;98.80;;;;;;4917684;29;20047;-80
2021/01/29 02:52:21;;;;;;;35.30;21.85;;;2.50;98.90;;;;;;4900601;29;20055;-80
2021/01/29 02:54:56;;;;;;;33.85;21.38;;;2.50;98.90;;;;;;4901010;29;20048;-74
2021/01/29 02:57:41;;;;;;;35.08;22.20;;;2.50;98.70;;;;;;4917450;29;20040;-74
2021/01/29 03:00:30;;;;;;;33.95;20.67;;;2.50;98.80;;;;;;4917394;29;20693;-74
2021/01/29 03:03:24;;;;;;;33.80;21.77;;;2.50;98.90;;;;;;4910373;29;20048;-74
2021/01/29 03:06:09;;;;;;;35.10;21.73;;;2.50;98.80;;;;;;4911829;29;20066;-74
2021/01/29 03:09:00;;;;;;;33.45;20.40;;;2.60;98.90;;;;;;4900559;29;20044;-74
2021/01/29 03:11:39;;;;;;;33.35;21.35;;;2.50;98.80;;;;;;4917287;29;20043;-74
2021/01/29 03:14:13;;;;;;;38.88;21.77;;;2.60;99.10;;;;;;4917076;29;20051;-74
2021/01/29 03:16:55;;;;;;;32.78;20.98;;;2.60;99.30;;;;;;4917209;29;20040;-74
2021/01/29 03:19:48;;;;;;;34.10;21.33;;;2.60;99.00;;;;;;4916784;29;20485;-74
2021/01/29 03:22:19;;;;;;;32.83;20.83;;;2.60;99.00;;;;;;4915230;29;20512;-74
2021/01/29 03:24:51;;;;;;;34.55;22.10;;;2.70;99.10;;;;;;4916969;29;20047;-74
2021/01/29 03:27:24;;;;;;;36.72;22.52;;;2.50;99.10;;;;;;4917080;29;20037;-74
2021/01/29 03:29:59;;;;;;;38.67;22.80;;;2.50;99.20;;;;;;4899786;29;20500;-74
2021/01/29 03:32:26;;;;;;;35.42;21.50;;;2.50;99.30;;;;;;4916956;29;20035;-74
2021/01/29 03:34:57;;;;;;;36.95;22.60;;;2.50;99.30;;;;;;4930008;29;20379;-74
2021/01/29 03:37:33;;;;;;;34.95;21.85;;;2.50;99.20;;;;;;4903915;29;20040;-74
2021/01/29 03:39:59;;;;;;;36.03;22.23;;;2.50;99.20;;;;;;4916776;29;20055;-74
2021/01/29 03:42:31;;;;;;;35.90;22.15;;;2.50;99.50;;;;;;4916649;29;20123;-74
2021/01/29 03:45:22;;;;;;;36.50;22.20;;;2.50;99.40;;;;;;4931362;29;20095;-74
2021/01/29 03:48:13;;;;;;;38.63;22.48;;;2.50;99.30;;;;;;4916769;29;20401;-74
2021/01/29 03:50:55;;;;;;;35.65;21.67;;;2.50;99.50;;;;;;4916717;29;20071;-74
2021/01/29 03:53:48;;;;;;;33.13;22.00;;;2.50;99.50;;;;;;4899910;29;20067;-74
2021/01/29 03:56:17;;;;;;;38.67;21.27;;;2.50;99.50;;;;;;4916583;29;20036;-74
2021/01/29 03:59:27;;;;;;;35.58;21.33;;;2.50;99.60;;;;;;4916462;29;20040;-73
2021/01/29 04:01:56;;;;;;;40.55;22.70;;;2.50;99.50;;;;;;4906324;29;20095;-73
2021/01/29 04:04:30;;;;;;;40.72;23.08;;;2.50;99.70;;;;;;4916423;29;20111;-74
2021/01/29 04:07:33;;;;;;;32.50;21.30;;;2.50;99.80;;;;;;4916366;29;20090;-74
2021/01/29 04:10:01;;;;;;;38.75;21.88;;;2.50;99.30;;;;;;4880243;29;20520;-73
2021/01/29 04:12:39;;;;;;;37.70;22.80;;;2.50;99.50;;;;;;4924806;29;20032;-74
2021/01/29 04:15:44;;;;;;;34.10;21.20;;;2.70;99.50;;;;;;4916376;29;20495;-73
2021/01/29 04:18:34;;;;;;;33.42;21.85;;;2.50;99.60;;;;;;4916214;29;20485;-74
2021/01/29 04:21:21;;;;;;;34.03;21.70;;;2.50;99.40;;;;;;4916126;29;20051;-73
2021/01/29 04:23:52;;;;;;;33.13;21.38;;;2.50;99.50;;;;;;4916267;29;20040;-73
2021/01/29 04:26:22;;;;;;;36.75;21.90;;;2.50;99.40;;;;;;4916247;29;20146;-74
2021/01/29 04:28:55;;;;;;;33.42;20.80;;;2.40;99.30;;;;;;4916206;29;20059;-74
2021/01/29 04:31:24;;;;;;;32.15;21.83;;;2.40;99.30;;;;;;4916314;29;20055;-74
2021/01/29 04:33:57;;;;;;;32.42;20.75;;;2.60;99.60;;;;;;4916122;29;20058;-73
2021/01/29 04:36:27;;;;;;;35.70;23.00;;;2.30;99.50;;;;;;4899165;29;20043;-74
2021/01/29 04:39:11;;;;;;;32.10;20.85;;;2.30;99.50;;;;;;4916085;29;20107;-73
2021/01/29 04:41:53;;;;;;;33.90;22.15;;;2.30;99.60;;;;;;4902823;29;20475;-74
2021/01/29 04:44:38;;;;;;;32.83;20.92;;;2.20;99.50;;;;;;4919836;29;20047;-74
2021/01/29 04:47:27;;;;;;;37.75;21.63;;;2.70;99.70;;;;;;4919663;29;20062;-74
2021/01/29 04:50:07;;;;;;;28.92;19.20;;;2.20;99.70;;;;;;4919736;29;20564;-74
2021/01/29 04:52:56;;;;;;;31.05;20.42;;;2.20;99.60;;;;;;4902757;29;20040;-74
2021/01/29 04:55:39;;;;;;;28.05;18.65;;;2.20;99.70;;;;;;4919608;29;20040;-74
2021/01/29 04:58:28;;;;;;;28.67;19.50;;;2.20;99.60;;;;;;4919596;29;20135;-73
2021/01/29 05:01:37;;;;;;;27.10;18.83;;;2.20;99.70;;;;;;4919419;29;20048;-73
2021/01/29 05:04:28;;;;;;;29.55;19.83;;;2.20;99.50;;;;;;4902670;29;20075;-74
2021/01/29 05:07:15;;;;;;;28.70;18.10;;;2.20;99.60;;;;;;4919606;29;20052;-74
2021/01/29 05:09:55;;;;;;;28.60;18.45;;;2.30;99.60;;;;;;4919515;29;20092;-73
2021/01/29 05:12:24;;;;;;;30.15;19.27;;;2.20;99.50;;;;;;4919278;29;20040;-73
2021/01/29 05:15:08;;;;;;;28.95;19.45;;;2.20;99.50;;;;;;4934080;29;20036;-74
2021/01/29 05:18:04;;;;;;;29.10;19.45;;;2.20;99.50;;;;;;4919133;29;20180;-74
2021/01/29 05:20:48;;;;;;;30.20;19.10;;;2.20;99.50;;;;;;4900289;29;20045;-74
2021/01/29 05:23:40;;;;;;;28.58;18.50;;;2.10;99.40;;;;;;4900303;29;20111;-73
2021/01/29 05:26:43;;;;;;;30.92;19.23;;;2.10;99.60;;;;;;4900204;29;20450;-73
2021/01/29 05:29:51;;;;;;;24.05;17.48;;;2.10;99.60;;;;;;4900228;29;20071;-73
2021/01/29 05:33:01;;;;;;;26.38;17.35;;;2.10;99.70;;;;;;4881173;29;20056;-73
2021/01/29 05:35:50;;;;;;;27.92;17.75;;;2.10;99.50;;;;;;4880208;29;20060;-73
2021/01/29 05:38:50;;;;;;;29.90;17.80;;;2.10;99.50;;;;;;4914959;29;20044;-73
2021/01/29 05:41:16;;;;;;;27.15;18.10;;;2.10;99.80;;;;;;4900265;29;20040;-73
2021/01/29 05:44:06;;;;;;;26.27;17.98;;;2.10;99.60;;;;;;4900007;29;20037;-73
2021/01/29 05:46:55;;;;;;;25.65;17.23;;;2.20;99.80;;;;;;4900175;29;20407;-73
2021/01/29 05:49:32;;;;;;;24.70;16.67;;;2.10;99.40;;;;;;4880795;29;20049;-73
2021/01/29 05:52:15;;;;;;;24.40;16.80;;;2.10;99.50;;;;;;4898675;29;20047;-73
2021/01/29 05:55:07;;;;;;;23.98;16.25;;;2.10;99.50;;;;;;4899962;29;20047;-73
2021/01/29 05:57:51;;;;;;;26.50;16.17;;;2.10;99.30;;;;;;4899817;29;20037;-73
2021/01/29 06:00:23;;;;;;;22.27;15.85;;;2.20;99.60;;;;;;4899817;29;20047;-73
2021/01/29 06:03:23;;;;;;;22.40;16.45;;;2.20;99.60;;;;;;4914225;29;20048;-73
2021/01/29 06:05:57;;;;;;;21.38;15.10;;;2.20;99.60;;;;;;4899588;29;20104;-73
2021/01/29 06:08:50;;;;;;;25.08;15.05;;;2.20;99.60;;;;;;4899614;29;20096;-73
2021/01/29 06:11:42;;;;;;;21.02;15.27;;;2.20;99.30;;;;;;4899433;29;20036;-73
2021/01/29 06:14:45;;;;;;;20.55;14.95;;;2.20;99.60;;;;;;4882570;29;20104;-73
2021/01/29 06:17:36;;;;;;;21.25;15.07;;;2.20;99.50;;;;;;4899606;29;20045;-73
2021/01/29 06:20:33;;;;;;;19.90;15.27;;;2.20;99.70;;;;;;4916356;29;20059;-73
2021/01/29 06:23:33;;;;;;;19.38;14.27;;;2.20;99.70;;;;;;4918148;29;20042;-73
2021/01/29 06:26:21;;;;;;;21.90;15.02;;;2.10;99.60;;;;;;4932572;29;20074;-73
2021/01/29 06:29:09;;;;;;;20.75;14.30;;;2.10;99.70;;;;;;4914312;29;20043;-73
2021/01/29 06:32:13;;;;;;;20.75;14.25;;;2.10;99.80;;;;;;4912418;29;20067;-73
2021/01/29 06:35:08;;;;;;;20.48;13.65;;;2.10;99.80;;;;;;4918055;29;20559;-73
2021/01/29 06:37:45;;;;;;;19.27;13.80;;;2.60;99.90;;;;;;4917983;29;20040;-73
2021/01/29 06:40:23;;;;;;;18.90;12.82;;;2.10;99.90;;;;;;4917755;29;20040;-73
2021/01/29 06:43:04;;;;;;;19.30;13.85;;;2.10;99.90;;;;;;4918094;29;20111;-73
2021/01/29 06:45:50;;;;;;;20.08;13.73;;;2.30;99.90;;;;;;4917652;29;20100;-73
2021/01/29 06:48:25;;;;;;;20.50;13.43;;;2.10;99.90;;;;;;4917784;29;20036;-73
2021/01/29 06:51:14;;;;;;;17.60;13.05;;;2.10;99.90;;;;;;4917738;29;20545;-74
2021/01/29 06:54:02;;;;;;;18.42;13.38;;;2.10;99.90;;;;;;4917577;29;20050;-74
2021/01/29 06:56:42;;;;;;;18.65;13.10;;;2.10;99.80;;;;;;4917687;29;20119;-74
2021/01/29 06:59:46;;;;;;;16.50;11.40;;;2.20;99.90;;;;;;4917487;29;20032;-74
2021/01/29 07:02:30;;;;;;;17.90;11.68;;;2.10;99.80;;;;;;4916964;29;20055;-74
2021/01/29 07:05:28;;;;;;;17.60;12.73;;;2.10;99.90;;;;;;4900785;29;20083;-74
2021/01/29 07:08:03;;;;;;;16.15;11.38;;;2.10;99.90;;;;;;4917390;29;20056;-74
2021/01/29 07:10:37;;;;;;;15.98;11.05;;;2.20;99.90;;;;;;4917507;29;20064;-73
2021/01/29 07:13:26;;;;;;;17.05;11.05;;;2.20;99.90;;;;;;4931766;29;20043;-74
2021/01/29 07:16:23;;;;;;;14.60;11.25;;;2.10;99.90;;;;;;4899726;29;20060;-73
2021/01/29 07:19:07;;;;;;;16.52;10.45;;;2.20;99.90;;;;;;4915121;29;20052;-73
2021/01/29 07:22:17;;;;;;;16.33;11.23;;;2.20;99.90;;;;;;4917039;29;20047;-73
2021/01/29 07:25:12;;;;;;;14.55;10.07;;;2.10;99.90;;;;;;4917006;29;20036;-73
2021/01/29 07:28:07;;;;;;;17.83;11.32;;;2.20;99.90;;;;;;4917054;29;20115;-73
2021/01/29 07:31:15;;;;;;;15.30;10.77;;;2.20;99.90;;;;;;4898535;29;20059;-73
2021/01/29 07:34:05;;;;;;;12.88;10.13;;;2.20;99.90;;;;;;4900067;29;20400;-73
2021/01/29 07:36:55;;;;;;;17.27;10.95;;;2.20;99.90;;;;;;4916919;29;20119;-73
2021/01/29 07:39:30;;;;;;;12.38;9.82;;;2.20;99.90;;;;;;4916876;29;20160;-80
2021/01/29 07:42:29;;;;;;;14.63;10.70;;;2.20;99.90;;;;;;4916683;29;20400;-80
2021/01/29 07:45:37;;;;;;;15.02;10.02;;;2.20;99.90;;;;;;4916874;29;20059;-81
2021/01/29 07:48:30;;;;;;;14.48;10.65;;;2.20;99.90;;;;;;4907353;29;20096;-80
2021/01/29 07:51:08;;;;;;;12.68;9.93;;;2.20;99.90;;;;;;4899755;29;20040;-78
2021/01/29 07:53:37;;;;;;;14.52;10.13;;;2.30;99.90;;;;;;4916851;29;20036;-80
2021/01/29 07:56:28;;;;;;;16.73;11.20;;;2.20;99.90;;;;;;4916632;29;20536;-81
2021/01/29 07:59:31;;;;;;;13.98;10.35;;;2.30;99.90;;;;;;4916551;29;20111;-80
2021/01/29 08:02:21;;;;;;;14.25;10.75;;;2.30;99.90;;;;;;4931222;29;20171;-81
2021/01/29 08:05:16;;;;;;;15.18;10.35;;;2.30;99.90;;;;;;4916363;29;20517;-81
2021/01/29 08:07:50;;;;;;;14.65;10.50;;;2.40;99.90;;;;;;4899458;29;20028;-80
2021/01/29 08:10:43;;;;;;;12.20;10.00;;;2.30;99.90;;;;;;4930918;29;20092;-74
2021/01/29 08:13:32;;;;;;;16.20;9.85;;;2.30;99.90;;;;;;4903640;29;20111;-73
2021/01/29 08:16:28;;;;;;;14.93;10.57;;;2.30;99.90;;;;;;4930635;29;20046;-74
2021/01/29 08:19:20;;;;;;;12.77;8.93;;;2.40;99.90;;;;;;4914122;29;20489;-74
2021/01/29 08:22:06;;;;;;;12.85;9.63;;;2.30;99.90;;;;;;4916312;29;20070;-74
2021/01/29 08:24:42;;;;;;;12.38;9.43;;;2.40;99.90;;;;;;4916232;29;20063;-74
2021/01/29 08:27:50;;;;;;;14.50;9.65;;;2.40;99.90;;;;;;4916336;29;20044;-73
2021/01/29 08:30:32;;;;;;;15.07;10.13;;;2.40;99.90;;;;;;4916201;29;20036;-73
2021/01/29 08:33:35;;;;;;;12.65;9.13;;;3.00;99.90;;;;;;4916274;29;20544;-73
2021/01/29 08:36:13;;;;;;;13.63;8.93;;;2.50;99.90;;;;;;4916253;29;20044;-73
2021/01/29 08:38:58;;;;;;;16.42;9.60;;;2.40;99.90;;;;;;4916114;29;20044;-73
2021/01/29 08:41:43;;;;;;;14.35;9.63;;;2.50;99.90;;;;;;4916125;29;20055;-73
2021/01/29 08:44:32;;;;;;;15.35;9.52;;;2.40;99.90;;;;;;4916127;29;20036;-73
2021/01/29 08:47:22;;;;;;;17.85;10.48;;;2.50;99.90;;;;;;4916054;29;20040;-73
2021/01/29 08:50:15;;;;;;;13.13;8.98;;;2.50;99.90;;;;;;4916116;29;20048;-73
2021/01/29 08:53:29;;;;;;;13.65;10.35;;;2.50;99.90;;;;;;4916006;29;20473;-73
2021/01/29 08:56:31;;;;;;;13.85;9.55;;;2.50;99.90;;;;;;4916039;29;20048;-73
2021/01/29 08:59:05;;;;;;;18.75;9.05;;;2.50;99.90;;;;;;4899108;29;20050;-73
2021/01/29 09:01:46;;;;;;;13.40;8.88;;;2.70;99.90;;;;;;4916060;29;20048;-73
2021/01/29 09:04:38;;;;;;;15.23;8.85;;;2.50;99.90;;;;;;4915899;29;20044;-73
2021/01/29 09:07:21;;;;;;;12.95;8.93;;;2.50;99.90;;;;;;4916062;29;20047;-73
2021/01/29 09:09:49;;;;;;;14.20;9.50;;;2.50;99.90;;;;;;4915952;29;20068;-74
2021/01/29 09:12:24;;;;;;;13.60;8.98;;;2.50;99.90;;;;;;4899168;29;20115;-73
2021/01/29 09:14:58;;;;;;;;;;;2.50;99.90;;;;;;4916401;29;20037;-73
2021/01/29 09:17:29;;;;;;;10.45;8.68;;;2.50;99.90;;;;;;4915833;29;19925;-72
2021/01/29 09:20:04;;;;;;;16.98;10.35;;;2.50;99.90;;;;;;4899017;29;20070;-73
2021/01/29 09:22:39;;;;;;;12.57;8.95;;;2.60;99.90;;;;;;4916079;29;20052;-73
2021/01/29 09:25:27;;;;;;;11.20;8.75;;;2.50;99.90;;;;;;4916099;29;20048;-73
2021/01/29 09:28:07;;;;;;;20.27;10.60;;;2.50;99.90;;;;;;4919298;29;20044;-73
2021/01/29 09:30:52;;;;;;;12.45;9.45;;;2.60;99.90;;;;;;4919186;29;20110;-73
2021/01/29 09:33:53;;;;;;;11.75;9.18;;;2.60;99.90;;;;;;4918804;29;20488;-73
2021/01/29 09:36:31;;;;;;;13.00;9.55;;;2.60;99.90;;;;;;4916961;29;20548;-73
2021/01/29 09:39:13;;;;;;;14.80;10.88;;;3.00;99.90;;;;;;4919033;29;20032;-73
2021/01/29 09:41:59;;;;;;;16.98;10.32;;;2.70;99.90;;;;;;4918957;29;20043;-73
2021/01/29 09:44:36;;;;;;;11.93;9.23;;;2.70;99.90;;;;;;4902186;29;20040;-73
2021/01/29 09:47:04;;;;;;;12.45;8.98;;;2.70;99.90;;;;;;4918843;29;20396;-73
2021/01/29 09:49:34;;;;;;;11.95;8.75;;;2.70;99.90;;;;;;4933758;29;20083;-73
2021/01/29 09:52:00;;;;;;;12.27;9.70;;;2.70;99.90;;;;;;4918720;29;20065;-73
2021/01/29 09:54:28;;;;;;;15.30;10.05;;;2.70;99.90;;;;;;4918872;29;20585;-73
2021/01/29 09:57:01;;;;;;;12.00;9.13;;;2.70;99.90;;;;;;4918816;29;20043;-73
2021/01/29 09:59:34;;;;;;;12.13;8.48;;;2.80;99.90;;;;;;4919562;29;20041;-72
2021/01/29 10:02:42;;;;;;;13.20;8.30;;;2.80;99.90;;;;;;4902373;29;20130;-73
2021/01/29 10:05:16;;;;;;;12.63;8.20;;;2.80;99.90;;;;;;4919977;29;20464;-72
2021/01/29 10:07:58;;;;;;;10.88;8.77;;;2.80;99.90;;;;;;4918425;29;20048;-72
2021/01/29 10:10:34;;;;;;;12.75;9.45;;;2.80;99.90;;;;;;4918475;29;20048;-72
2021/01/29 10:13:10;;;;;;;15.15;10.35;;;2.80;99.90;;;;;;4918324;29;20473;-72
2021/01/29 10:15:39;;;;;;;13.75;9.95;;;2.80;99.90;;;;;;4918302;29;20111;-72
2021/01/29 10:18:23;;;;;;;13.95;9.38;;;2.80;99.90;;;;;;4901250;29;20075;-72
2021/01/29 10:21:01;;;;;;;13.27;9.10;;;2.90;99.90;;;;;;4899054;29;20103;-72
2021/01/29 10:23:42;;;;;;;14.10;9.60;;;2.90;99.90;;;;;;4913998;29;20052;-72
2021/01/29 10:26:29;;;;;;;13.65;9.48;;;2.80;99.90;;;;;;4898980;29;20116;-73
2021/01/29 10:29:22;;;;;;;13.05;8.85;;;2.90;99.90;;;;;;4882159;29;20037;-73
2021/01/29 10:32:08;;;;;;;16.15;8.80;;;2.90;99.90;;;;;;4898998;29;20072;-73
2021/01/29 10:34:45;;;;;;;10.82;8.45;;;2.90;99.90;;;;;;4899019;29;20410;-72
2021/01/29 10:37:27;;;;;;;11.98;8.77;;;2.90;99.90;;;;;;4881727;29;20136;-73
2021/01/29 10:40:36;;;;;;;12.13;9.02;;;2.90;99.90;;;;;;4882241;29;20119;-79
2021/01/29 10:43:13;;;;;;;11.52;8.60;;;2.90;99.90;;;;;;4888614;29;20056;-79
2021/01/29 10:45:49;;;;;;;12.48;9.27;;;2.90;99.90;;;;;;4898887;29;20087;-80
2021/01/29 10:48:27;;;;;;;11.65;8.98;;;3.00;99.90;;;;;;4898885;29;20168;-72
2021/01/29 10:51:06;;;;;;;12.70;9.32;;;3.60;99.90;;;;;;4898812;29;20041;-74
2021/01/29 10:53:34;;;;;;;11.23;8.93;;;3.00;99.90;;;;;;4898864;29;20052;-73
2021/01/29 10:56:03;;;;;;;11.40;8.68;;;3.00;99.90;;;;;;4898691;29;20118;-73
2021/01/29 10:58:41;;;;;;;11.60;9.32;;;3.00;99.90;;;;;;4898842;29;20040;-73
2021/01/29 11:01:20;;;;;;;10.77;8.48;;;3.00;99.90;;;;;;4913154;29;20033;-73
2021/01/29 11:03:57;;;;;;;11.30;8.35;;;3.00;99.90;;;;;;4898603;29;20509;-73
2021/01/29 11:06:37;;;;;;;11.35;9.00;;;3.00;99.90;;;;;;4882161;29;20454;-73
2021/01/29 11:09:13;;;;;;;9.60;6.95;;;3.00;99.90;;;;;;4898303;29;20486;-80
2021/01/29 11:11:44;;;;;;;9.93;7.80;;;3.10;99.90;;;;;;4881878;29;20071;-80
2021/01/29 11:14:48;;;;;;;10.20;7.97;;;3.00;99.90;;;;;;4898371;29;20045;-81
2021/01/29 11:17:37;;;;;;;10.65;8.57;;;3.00;99.90;;;;;;4868164;29;20057;-80
2021/01/29 11:20:20;;;;;;;13.35;9.00;;;3.10;99.90;;;;;;4914207;29;20059;-80
2021/01/29 11:22:49;;;;;;;10.40;8.45;;;3.10;99.90;;;;;;4931890;29;20040;-80
2021/01/29 11:25:41;;;;;;;9.38;7.93;;;3.10;99.90;;;;;;4917118;29;20036;-74
2021/01/29 11:28:17;;;;;;;10.80;8.38;;;3.00;99.90;;;;;;4916762;29;20527;-80
2021/01/29 11:31:05;;;;;;;9.15;7.80;;;3.10;99.90;;;;;;4917095;29;20446;-81
2021/01/29 11:33:35;;;;;;;12.27;8.63;;;3.10;99.90;;;;;;4900097;29;20120;-80
2021/01/29 11:36:06;;;;;;;11.77;8.32;;;3.90;99.90;;;;;;4917050;29;20064;-81
2021/01/29 11:38:38;;;;;;;9.57;7.45;;;3.70;99.90;;;;;;4931306;29;20044;-80
2021/01/29 11:41:33;;;;;;;10.38;8.13;;;3.10;99.90;;;;;;4916632;29;20111;-81
2021/01/29 11:44:04;;;;;;;11.23;8.43;;;3.10;99.90;;;;;;4916586;29;20063;-81
2021/01/29 11:46:55;;;;;;;11.85;7.55;;;3.10;99.90;;;;;;4931713;29;20043;-80
2021/01/29 11:49:27;;;;;;;12.07;8.52;;;3.10;99.90;;;;;;4909908;29;20052;-81
2021/01/29 11:52:26;;;;;;;11.25;8.35;;;3.20;99.90;;;;;;4931239;29;20044;-81
2021/01/29 11:55:10;;;;;;;9.25;8.05;;;3.20;99.90;;;;;;4909688;29;20084;-81
2021/01/29 11:57:43;;;;;;;10.50;8.00;;;3.20;99.90;;;;;;4916502;29;20036;-80
2021/01/29 12:00:19;;;;;;;14.90;8.80;;;3.20;99.90;;;;;;4899450;29;20044;-80
2021/01/29 12:03:09;;;;;;;11.75;8.93;;;3.20;99.90;;;;;;4916495;29;20040;-80
2021/01/29 12:05:53;;;;;;;13.02;9.05;;;3.20;99.90;;;;;;4916356;29;20074;-80
2021/01/29 12:08:32;;;;;;;9.73;7.85;;;3.20;99.90;;;;;;4899488;29;20043;-80
2021/01/29 12:11:14;;;;;;;10.05;8.05;;;3.30;99.90;;;;;;4916197;29;20115;-80
2021/01/29 12:13:56;;;;;;;11.43;8.40;;;3.30;99.90;;;;;;4916165;29;20096;-80
2021/01/29 12:16:25;;;;;;;11.10;8.30;;;3.30;99.90;;;;;;4916464;29;20453;-80
2021/01/29 12:18:53;;;;;;;15.57;9.00;;;3.30;99.90;;;;;;4916031;29;20044;-80
2021/01/29 12:21:25;;;;;;;11.02;8.85;;;3.60;99.90;;;;;;4899279;29;20052;-80
2021/01/29 12:23:56;;;;;;;11.30;8.57;;;3.50;99.90;;;;;;4916068;29;20040;-80
2021/01/29 12:26:31;;;;;;;12.45;8.77;;;3.40;99.90;;;;;;4915992;29;20040;-80
2021/01/29 12:29:25;;;;;;;10.50;8.10;;;3.40;99.90;;;;;;4915981;29;20068;-80
2021/01/29 12:32:00;;;;;;;12.27;8.60;;;3.40;99.90;;;;;;4915988;29;20044;-81
2021/01/29 12:34:41;;;;;;;13.80;8.70;;;4.00;99.90;;;;;;4916056;29;20036;-80
2021/01/29 12:37:25;;;;;;;11.35;7.90;;;3.50;99.90;;;;;;4915879;29;20425;-80
2021/01/29 12:39:53;;;;;;;13.15;7.80;;;3.50;99.90;;;;;;4915919;29;20101;-80
2021/01/29 12:42:38;;;;;;;11.30;8.32;;;3.50;99.90;;;;;;4916168;29;20072;-80
2021/01/29 12:45:16;;;;;;;13.02;7.82;;;4.50;99.90;;;;;;4916235;29;20401;-80
2021/01/29 12:47:50;;;;;;;12.02;7.72;;;3.60;99.90;;;;;;4904207;29;20040;-80
2021/01/29 12:50:28;;;;;;;9.93;7.50;;;3.50;99.90;;;;;;4915939;29;20044;-80
2021/01/29 12:53:08;;;;;;;13.65;7.90;;;3.60;99.90;;;;;;4916212;29;20044;-80
2021/01/29 12:55:49;;;;;;;12.85;8.60;;;3.60;99.90;;;;;;4916011;29;20096;-80
2021/01/29 12:58:16;;;;;;;13.13;8.60;;;4.00;99.90;;;;;;4916059;29;20059;-80
2021/01/29 13:00:44;;;;;;;13.25;8.40;;;3.70;99.90;;;;;;4915992;29;20437;-80
2021/01/29 13:03:25;;;;;;;14.32;7.97;;;3.70;99.90;;;;;;4902772;29;20040;-80
2021/01/29 13:06:09;;;;;;;14.70;8.80;;;3.70;99.90;;;;;;4934140;29;20051;-80
2021/01/29 13:08:55;;;;;;;15.18;8.52;;;3.80;99.90;;;;;;4919595;29;20099;-80
2021/01/29 13:11:38;;;;;;;23.92;10.95;;;3.80;99.90;;;;;;4933938;29;20127;-80
2021/01/29 13:14:35;;;;;;;49.33;14.57;;;3.90;99.90;;;;;;4919291;29;20040;-80
2021/01/29 13:17:19;;;;;;;86.72;15.85;;;4.10;99.90;;;;;;4902430;29;20048;-80
2021/01/29 13:19:47;;;;;;;85.90;15.60;;;4.40;99.90;;;;;;4919054;29;20530;-80
2021/01/29 13:22:19;;;;;;;85.95;15.40;;;4.80;99.90;;;;;;4919209;29;20042;-79
2021/01/29 13:25:08;;;;;;;95.10;16.35;;;5.20;99.90;;;;;;4919057;29;20432;-80
2021/01/29 13:27:48;;;;;;;86.97;14.75;;;5.40;99.90;;;;;;4919255;29;20173;-80
2021/01/29 13:30:27;;;;;;;95.22;15.73;;;5.60;99.90;;;;;;4918924;29;20044;-80
2021/01/29 13:32:53;;;;;;;93.68;16.17;;;5.80;99.90;;;;;;4919193;29;20493;-80
2021/01/29 13:35:31;;;;;;;94.32;16.15;;;5.90;99.90;;;;;;4918993;29;20149;-80
2021/01/29 13:38:10;;;;;;;89.40;13.85;;;6.10;99.90;;;;;;4919012;29;20040;-80
2021/01/29 13:40:38;;;;;;;91.80;14.63;;;6.10;99.90;;;;;;4918809;29;20040;-80
2021/01/29 13:43:29;;;;;;;95.13;14.68;;;6.30;99.90;;;;;;4902072;29;20064;-80
2021/01/29 13:46:17;;;;;;;101.60;14.95;;;6.20;99.90;;;;;;4918591;29;20043;-80
2021/01/29 13:48:42;;;;;;;91.13;13.32;;;6.20;99.90;;;;;;4918548;29;20036;-80